Time;durP1;ratioP1;P1;durP2;ratioP2;P2;SDS_P1;SDS_P2;PMS_P1;PMS_P2;Temp;Humidity;BMP_temperature;BMP_pressure;BME280_temperature;BME280_humidity;BME280_pressure;Samples;Min_cycle;Max_cycle;Signal;HPM_P1;HPM_P2
2023/03/12 00:01:41;;;;;;;4.43;2.07;;;;;;;;;;4366047;32;317361;-82
2023/03/12 00:04:07;;;;;;;5.40;2.67;;;;;;;;;;4355433;32;317104;-83
2023/03/12 00:06:34;;;;;;;3.50;2.23;;;;;;;;;;4374640;32;317217;-83
2023/03/12 00:09:01;;;;;;;6.83;2.37;;;;;;;;;;4377705;32;317255;-82
2023/03/12 00:11:28;;;;;;;5.93;1.70;;;;;;;;;;4395652;32;316505;-82
2023/03/12 00:13:58;;;;;;;4.73;1.50;;;;;;;;;;4381872;32;316581;-82
2023/03/12 00:16:26;;;;;;;3.80;1.50;;;;;;;;;;4366361;32;417712;-84
2023/03/12 00:18:54;;;;;;;2.80;1.70;;;;;;;;;;4379901;32;316737;-83
2023/03/12 00:21:22;;;;;;;2.70;1.80;;;;;;;;;;4368884;32;336880;-83
2023/03/12 00:23:49;;;;;;;5.07;2.20;;;;;;;;;;4381277;32;317716;-83
2023/03/12 00:26:17;;;;;;;12.07;2.53;;;;;;;;;;4369632;32;342344;-82
2023/03/12 00:28:44;;;;;;;5.27;2.07;;;;;;;;;;4381331;32;317577;-83
2023/03/12 00:31:18;;;;;;;8.60;2.67;;;;;;;;;;4371141;32;317313;-82
2023/03/12 00:33:44;;;;;;;4.03;2.53;;;;;;;;;;4380276;32;316568;-82
2023/03/12 00:36:11;;;;;;;13.97;2.17;;;;;;;;;;4370143;32;316994;-82
2023/03/12 00:38:38;;;;;;;2.40;1.90;;;;;;;;;;4380804;32;318794;-82
2023/03/12 00:41:05;;;;;;;5.07;2.20;;;;;;;;;;4373945;32;317446;-82
2023/03/12 00:43:32;;;;;;;6.40;2.23;;;;;;;;;;4384209;32;317282;-82
2023/03/12 00:45:58;;;;;;;5.70;2.60;;;;;;;;;;4382048;32;317249;-82
2023/03/12 00:48:26;;;;;;;4.93;3.03;;;;;;;;;;4370492;32;403323;-82
2023/03/12 00:50:53;;;;;;;6.83;3.10;;;;;;;;;;4382633;32;317360;-82
2023/03/12 00:53:20;;;;;;;7.80;2.97;;;;;;;;;;4373911;32;316705;-83
2023/03/12 00:55:47;;;;;;;8.27;2.80;;;;;;;;;;4383610;32;317084;-82
2023/03/12 00:58:13;;;;;;;8.23;2.07;;;;;;;;;;4374196;32;317333;-83
2023/03/12 01:00:40;;;;;;;5.17;2.23;;;;;;;;;;4382352;32;317115;-82
2023/03/12 01:03:07;;;;;;;5.50;3.20;;;;;;;;;;4374113;32;317450;-82
2023/03/12 01:05:36;;;;;;;10.30;3.27;;;;;;;;;;4383423;32;316809;-82
2023/03/12 01:08:04;;;;;;;6.60;3.13;;;;;;;;;;4373423;32;317532;-83
2023/03/12 01:10:31;;;;;;;3.70;3.10;;;;;;;;;;4402300;32;317624;-82
2023/03/12 01:12:58;;;;;;;6.07;3.57;;;;;;;;;;4413747;32;316981;-82
2023/03/12 01:15:25;;;;;;;9.07;4.63;;;;;;;;;;4403938;32;317186;-82
2023/03/12 01:17:52;;;;;;;16.20;4.50;;;;;;;;;;4413896;32;316663;-82
2023/03/12 01:20:19;;;;;;;12.20;3.77;;;;;;;;;;4403560;32;318593;-82
2023/03/12 01:22:47;;;;;;;16.67;4.97;;;;;;;;;;4412537;32;317958;-82
2023/03/12 01:25:14;;;;;;;7.80;3.73;;;;;;;;;;4404038;32;318035;-84
2023/03/12 01:27:41;;;;;;;7.17;4.23;;;;;;;;;;4414070;32;317477;-82
2023/03/12 01:30:08;;;;;;;4.50;3.23;;;;;;;;;;4402701;32;317157;-82
2023/03/12 01:32:35;;;;;;;12.33;4.43;;;;;;;;;;4412546;32;316331;-82
2023/03/12 01:35:02;;;;;;;11.23;3.57;;;;;;;;;;4402880;32;341716;-82
2023/03/12 01:37:29;;;;;;;5.63;3.77;;;;;;;;;;4413352;32;318469;-82
2023/03/12 01:39:57;;;;;;;9.80;4.33;;;;;;;;;;4413235;32;317452;-83
2023/03/12 01:42:24;;;;;;;19.20;5.00;;;;;;;;;;4403663;32;317106;-83
2023/03/12 01:44:53;;;;;;;13.43;5.67;;;;;;;;;;4413758;32;318352;-83
2023/03/12 01:47:20;;;;;;;16.33;5.97;;;;;;;;;;4403346;32;318927;-82
2023/03/12 01:49:48;;;;;;;11.77;5.97;;;;;;;;;;4409858;32;317566;-83
2023/03/12 01:52:18;;;;;;;6.63;4.63;;;;;;;;;;4408962;32;329437;-83
2023/03/12 01:54:50;;;;;;;8.70;4.97;;;;;;;;;;4411516;32;330074;-84
2023/03/12 01:57:22;;;;;;;16.30;5.50;;;;;;;;;;4403639;32;317180;-83
2023/03/12 01:59:51;;;;;;;10.07;6.60;;;;;;;;;;4396860;32;318562;-82
2023/03/12 02:02:25;;;;;;;22.00;7.80;;;;;;;;;;4387995;32;318345;-83
2023/03/12 02:04:57;;;;;;;19.87;7.67;;;;;;;;;;4397893;32;317672;-82
2023/03/12 02:07:24;;;;;;;13.63;7.67;;;;;;;;;;4378087;32;317615;-82
2023/03/12 02:09:51;;;;;;;21.83;6.13;;;;;;;;;;4381389;32;318168;-83
2023/03/12 02:12:19;;;;;;;9.43;6.47;;;;;;;;;;4371860;32;318300;-83
2023/03/12 02:14:46;;;;;;;15.67;5.17;;;;;;;;;;4381490;32;317331;-83
2023/03/12 02:17:12;;;;;;;10.23;6.27;;;;;;;;;;4371899;32;318277;-85
2023/03/12 02:19:46;;;;;;;13.30;6.37;;;;;;;;;;4381727;32;342556;-82
2023/03/12 02:22:14;;;;;;;16.53;6.70;;;;;;;;;;4371771;32;317994;-82
2023/03/12 02:24:46;;;;;;;11.07;7.70;;;;;;;;;;4382027;32;317689;-81
2023/03/12 02:27:16;;;;;;;19.93;8.17;;;;;;;;;;4371466;32;318281;-83
2023/03/12 02:29:44;;;;;;;11.00;7.37;;;;;;;;;;4381189;32;317622;-83
2023/03/12 02:32:20;;;;;;;15.57;7.17;;;;;;;;;;4372894;32;318321;-82
2023/03/12 02:34:46;;;;;;;14.27;7.40;;;;;;;;;;4381361;32;317668;-82
2023/03/12 02:37:14;;;;;;;18.10;7.17;;;;;;;;;;4371123;32;326335;-82
2023/03/12 02:39:44;;;;;;;11.70;7.67;;;;;;;;;;4381561;32;318260;-82
2023/03/12 02:42:11;;;;;;;15.37;7.87;;;;;;;;;;4372617;32;318376;-82
2023/03/12 02:44:39;;;;;;;12.67;8.07;;;;;;;;;;4380375;32;318062;-83
2023/03/12 02:47:06;;;;;;;15.77;8.73;;;;;;;;;;4372379;32;318368;-82
2023/03/12 02:49:34;;;;;;;13.27;7.90;;;;;;;;;;4382160;32;317708;-82
2023/03/12 02:52:02;;;;;;;14.27;9.17;;;;;;;;;;4373964;32;318064;-83
2023/03/12 02:54:29;;;;;;;19.87;9.30;;;;;;;;;;4380786;32;318101;-82
2023/03/12 02:56:56;;;;;;;15.80;8.83;;;;;;;;;;4382003;32;317338;-82
2023/03/12 02:59:25;;;;;;;15.50;9.83;;;;;;;;;;4372354;32;318484;-82
2023/03/12 03:01:54;;;;;;;19.27;9.90;;;;;;;;;;4381136;32;317946;-82
2023/03/12 03:04:21;;;;;;;10.73;6.90;;;;;;;;;;4371950;32;318650;-82
2023/03/12 03:06:48;;;;;;;9.80;5.97;;;;;;;;;;4381179;32;318170;-82
2023/03/12 03:09:15;;;;;;;10.23;6.40;;;;;;;;;;4372417;32;317118;-82
2023/03/12 03:11:41;;;;;;;9.00;6.23;;;;;;;;;;4389703;32;318301;-82
2023/03/12 03:14:09;;;;;;;9.10;6.47;;;;;;;;;;4380405;32;316744;-82
2023/03/12 03:16:36;;;;;;;14.73;9.00;;;;;;;;;;4386754;32;316622;-82
2023/03/12 03:19:04;;;;;;;10.00;6.90;;;;;;;;;;4378274;32;317713;-83
2023/03/12 03:21:31;;;;;;;16.13;7.93;;;;;;;;;;4390596;32;317599;-82
2023/03/12 03:23:58;;;;;;;19.53;6.17;;;;;;;;;;4390556;32;317415;-82
2023/03/12 03:26:25;;;;;;;8.23;5.07;;;;;;;;;;4377892;32;318026;-82
2023/03/12 03:28:52;;;;;;;6.20;4.60;;;;;;;;;;4391317;32;316287;-82
2023/03/12 03:31:19;;;;;;;6.80;4.43;;;;;;;;;;4401194;32;316130;-81
2023/03/12 03:33:46;;;;;;;13.73;5.40;;;;;;;;;;4411126;32;315366;-83
2023/03/12 03:36:15;;;;;;;5.93;4.50;;;;;;;;;;4400951;32;316475;-82
2023/03/12 03:38:45;;;;;;;10.10;6.37;;;;;;;;;;4410794;32;316094;-82
2023/03/12 03:41:12;;;;;;;8.03;5.37;;;;;;;;;;4402034;32;317088;-82
2023/03/12 03:43:39;;;;;;;6.83;5.03;;;;;;;;;;4411383;32;316208;-82
2023/03/12 03:46:06;;;;;;;7.17;5.53;;;;;;;;;;4400737;32;316349;-82
2023/03/12 03:48:33;;;;;;;22.27;8.47;;;;;;;;;;4411731;32;315864;-83
2023/03/12 03:51:00;;;;;;;18.10;9.27;;;;;;;;;;4404655;32;317455;-83
2023/03/12 03:53:29;;;;;;;15.77;10.60;;;;;;;;;;4383382;32;416845;-82
2023/03/12 03:55:56;;;;;;;11.13;8.23;;;;;;;;;;4395212;32;317508;-82
2023/03/12 03:58:23;;;;;;;23.60;9.13;;;;;;;;;;4385482;32;317556;-82
2023/03/12 04:00:50;;;;;;;11.17;7.20;;;;;;;;;;4395391;32;317642;-83
2023/03/12 04:03:17;;;;;;;8.77;7.13;;;;;;;;;;4385487;32;318045;-82
2023/03/12 04:05:44;;;;;;;13.37;7.70;;;;;;;;;;4390544;32;316408;-83
2023/03/12 04:08:11;;;;;;;16.57;8.80;;;;;;;;;;4377334;32;316537;-82
2023/03/12 04:10:40;;;;;;;12.47;9.33;;;;;;;;;;4387588;32;317289;-83
2023/03/12 04:13:07;;;;;;;13.73;8.40;;;;;;;;;;4379855;32;316498;-81
2023/03/12 04:15:34;;;;;;;13.70;7.10;;;;;;;;;;4393261;32;317311;-81
2023/03/12 04:18:01;;;;;;;8.97;6.47;;;;;;;;;;4388963;32;316510;-84
2023/03/12 04:20:28;;;;;;;9.67;6.80;;;;;;;;;;4389652;32;316239;-82
2023/03/12 04:22:54;;;;;;;9.47;6.97;;;;;;;;;;4389267;32;315367;-82
2023/03/12 04:25:21;;;;;;;16.23;10.17;;;;;;;;;;4383066;32;315539;-83
2023/03/12 04:27:49;;;;;;;18.93;13.13;;;;;;;;;;4392903;32;318140;-81
2023/03/12 04:30:16;;;;;;;14.53;12.77;;;;;;;;;;4381884;32;318444;-82
2023/03/12 04:32:43;;;;;;;16.47;11.90;;;;;;;;;;4390882;32;318432;-83
2023/03/12 04:35:10;;;;;;;14.53;10.13;;;;;;;;;;4381346;32;318693;-81
2023/03/12 04:37:36;;;;;;;14.80;9.23;;;;;;;;;;4392085;32;318554;-81
2023/03/12 04:40:06;;;;;;;10.43;7.53;;;;;;;;;;4383128;32;317471;-83
2023/03/12 04:42:34;;;;;;;13.40;7.30;;;;;;;;;;4390531;32;316418;-83
2023/03/12 04:45:03;;;;;;;15.37;7.40;;;;;;;;;;4380919;32;316657;-84
2023/03/12 04:47:33;;;;;;;19.27;10.30;;;;;;;;;;4388648;32;317167;-83
2023/03/12 04:50:00;;;;;;;18.23;11.80;;;;;;;;;;4382778;32;318239;-83
2023/03/12 04:52:26;;;;;;;17.60;10.50;;;;;;;;;;4369567;32;417587;-83
2023/03/12 04:54:53;;;;;;;19.13;9.27;;;;;;;;;;4383971;32;318019;-83
2023/03/12 04:57:21;;;;;;;20.33;12.57;;;;;;;;;;4378085;32;316713;-84
2023/03/12 04:59:48;;;;;;;16.23;8.70;;;;;;;;;;4382454;32;317532;-84
2023/03/12 05:02:16;;;;;;;8.20;5.70;;;;;;;;;;4373515;32;336770;-82
2023/03/12 05:04:42;;;;;;;9.70;5.10;;;;;;;;;;4381386;32;345431;-83
2023/03/12 05:07:13;;;;;;;6.17;4.60;;;;;;;;;;4373777;32;316110;-84
2023/03/12 05:09:40;;;;;;;7.10;4.97;;;;;;;;;;4386829;32;316146;-83
2023/03/12 05:12:07;;;;;;;7.60;5.27;;;;;;;;;;4381178;32;316314;-84
2023/03/12 05:14:34;;;;;;;17.43;7.70;;;;;;;;;;4389778;32;315668;-84
2023/03/12 05:17:01;;;;;;;12.50;7.30;;;;;;;;;;4387134;32;316368;-83
2023/03/12 05:19:29;;;;;;;10.47;6.67;;;;;;;;;;4391296;32;317458;-83
2023/03/12 05:21:56;;;;;;;8.90;5.17;;;;;;;;;;4402756;32;316719;-83
2023/03/12 05:24:22;;;;;;;24.17;12.23;;;;;;;;;;4403206;32;344574;-84
2023/03/12 05:26:49;;;;;;;11.07;6.20;;;;;;;;;;4413658;32;318667;-83
2023/03/12 05:29:16;;;;;;;6.07;5.27;;;;;;;;;;4403685;32;316522;-84
2023/03/12 05:31:43;;;;;;;9.90;6.67;;;;;;;;;;4412705;32;316018;-83
2023/03/12 05:34:11;;;;;;;6.87;4.97;;;;;;;;;;4404262;32;315636;-83
2023/03/12 05:36:40;;;;;;;9.20;5.97;;;;;;;;;;4413940;32;315609;-83
2023/03/12 05:39:06;;;;;;;11.27;7.63;;;;;;;;;;4402658;32;315374;-83
2023/03/12 05:41:34;;;;;;;13.57;8.47;;;;;;;;;;4414434;32;317142;-82
2023/03/12 05:44:01;;;;;;;11.90;8.03;;;;;;;;;;4395363;32;317216;-83
2023/03/12 05:46:28;;;;;;;15.57;10.40;;;;;;;;;;4397111;32;317063;-83
2023/03/12 05:48:56;;;;;;;16.77;9.57;;;;;;;;;;4398379;32;318078;-83
2023/03/12 05:51:23;;;;;;;12.90;9.50;;;;;;;;;;4386984;32;317299;-83
2023/03/12 05:53:51;;;;;;;13.50;9.30;;;;;;;;;;4397308;32;316912;-83
2023/03/12 05:56:18;;;;;;;14.83;9.20;;;;;;;;;;4387230;32;317064;-83
2023/03/12 05:58:47;;;;;;;13.07;8.03;;;;;;;;;;4397912;32;317046;-83
2023/03/12 06:01:16;;;;;;;15.90;9.90;;;;;;;;;;4387981;32;317190;-83
2023/03/12 06:03:43;;;;;;;15.47;9.20;;;;;;;;;;4398298;32;317383;-82
2023/03/12 06:06:10;;;;;;;10.80;7.13;;;;;;;;;;4381644;32;317668;-83
2023/03/12 06:08:37;;;;;;;8.47;5.17;;;;;;;;;;4386958;32;317128;-82
2023/03/12 06:11:05;;;;;;;12.30;6.43;;;;;;;;;;4378168;32;315876;-83
2023/03/12 06:13:32;;;;;;;19.17;12.80;;;;;;;;;;4391803;32;317400;-83
2023/03/12 06:16:03;;;;;;;17.27;10.50;;;;;;;;;;4392021;32;318521;-82
2023/03/12 06:18:30;;;;;;;26.43;16.47;;;;;;;;;;4375502;32;417731;-83
2023/03/12 06:21:08;;;;;;;8.57;4.53;;;;;;;;;;4387611;32;317566;-84
2023/03/12 06:23:34;;;;;;;4.73;3.27;;;;;;;;;;4376321;32;415518;-82
2023/03/12 06:26:01;;;;;;;3.50;2.47;;;;;;;;;;4379331;32;315903;-83
2023/03/12 06:28:29;;;;;;;14.33;6.37;;;;;;;;;;4390906;32;316050;-83
2023/03/12 06:30:56;;;;;;;17.43;11.37;;;;;;;;;;4391493;32;316613;-82
2023/03/12 06:33:23;;;;;;;10.60;6.63;;;;;;;;;;4376798;32;317668;-83
2023/03/12 06:35:54;;;;;;;6.67;4.83;;;;;;;;;;4387186;32;317057;-83
2023/03/12 06:38:20;;;;;;;4.10;2.70;;;;;;;;;;4380906;32;315596;-85
2023/03/12 06:40:54;;;;;;;4.50;2.67;;;;;;;;;;4373112;32;316432;-87
2023/03/12 06:43:21;;;;;;;11.63;4.47;;;;;;;;;;4357155;32;317502;-84
2023/03/12 06:45:50;;;;;;;5.47;3.93;;;;;;;;;;4366614;32;316840;-83
2023/03/12 06:48:16;;;;;;;5.33;3.73;;;;;;;;;;4355605;32;317579;-84
2023/03/12 06:50:43;;;;;;;5.23;3.90;;;;;;;;;;4365789;32;317735;-84
2023/03/12 06:53:10;;;;;;;6.10;3.03;;;;;;;;;;4355713;32;317699;-85
2023/03/12 06:55:37;;;;;;;6.43;5.00;;;;;;;;;;4364327;32;317507;-86
2023/03/12 06:58:04;;;;;;;8.50;2.60;;;;;;;;;;4353205;32;339012;-83
2023/03/12 07:00:31;;;;;;;2.57;2.27;;;;;;;;;;4366732;32;315475;-86
2023/03/12 07:02:59;;;;;;;7.83;4.17;;;;;;;;;;4365002;32;316581;-83
2023/03/12 07:05:26;;;;;;;8.33;2.57;;;;;;;;;;4358167;32;415590;-83
2023/03/12 07:07:53;;;;;;;3.60;2.60;;;;;;;;;;4381791;32;316594;-84
2023/03/12 07:10:20;;;;;;;3.97;2.83;;;;;;;;;;4371006;32;316694;-81
2023/03/12 07:12:47;;;;;;;2.93;2.03;;;;;;;;;;4380715;32;316445;-81
2023/03/12 07:15:15;;;;;;;5.17;2.53;;;;;;;;;;4371311;32;317148;-82
2023/03/12 07:17:41;;;;;;;19.07;12.63;;;;;;;;;;4381078;32;317192;-85
2023/03/12 07:20:11;;;;;;;11.00;8.50;;;;;;;;;;4373454;32;319633;-82
2023/03/12 07:22:38;;;;;;;7.40;5.70;;;;;;;;;;4381549;32;318894;-81
2023/03/12 07:25:05;;;;;;;2.10;1.90;;;;;;;;;;4369994;32;317194;-82
2023/03/12 07:27:32;;;;;;;6.13;4.13;;;;;;;;;;4378263;32;317560;-83
2023/03/12 07:29:59;;;;;;;8.83;5.83;;;;;;;;;;4378403;32;317127;-80
2023/03/12 07:32:26;;;;;;;7.23;4.60;;;;;;;;;;4361563;32;417729;-81
2023/03/12 07:34:52;;;;;;;7.37;3.77;;;;;;;;;;4376115;32;317285;-81
2023/03/12 07:37:21;;;;;;;2.27;1.60;;;;;;;;;;4371463;32;317285;-82
2023/03/12 07:39:51;;;;;;;6.43;2.57;;;;;;;;;;4380107;32;317006;-83
2023/03/12 07:42:18;;;;;;;2.43;1.80;;;;;;;;;;4372021;32;315876;-80
2023/03/12 07:44:45;;;;;;;20.93;11.70;;;;;;;;;;4380273;32;316703;-80
2023/03/12 07:47:11;;;;;;;8.30;5.57;;;;;;;;;;4371391;32;337507;-80
2023/03/12 07:49:40;;;;;;;5.57;4.10;;;;;;;;;;4381443;32;316220;-81
2023/03/12 07:52:08;;;;;;;3.53;2.33;;;;;;;;;;4370513;32;317482;-80
2023/03/12 07:54:37;;;;;;;6.40;3.10;;;;;;;;;;4381331;32;317492;-81
2023/03/12 07:57:04;;;;;;;9.30;3.03;;;;;;;;;;4370791;32;317294;-82
2023/03/12 07:59:30;;;;;;;4.17;3.63;;;;;;;;;;4381077;32;316772;-83
2023/03/12 08:01:57;;;;;;;5.53;4.30;;;;;;;;;;4381608;32;316168;-82
2023/03/12 08:04:24;;;;;;;1.97;1.70;;;;;;;;;;4371176;32;315462;-82
2023/03/12 08:06:51;;;;;;;3.63;2.97;;;;;;;;;;4389425;32;317492;-82
2023/03/12 08:09:18;;;;;;;2.37;1.83;;;;;;;;;;4372575;32;316521;-82
2023/03/12 08:11:46;;;;;;;7.23;3.23;;;;;;;;;;4389927;32;316595;-81
2023/03/12 08:14:12;;;;;;;8.33;3.13;;;;;;;;;;4378041;32;336463;-81
2023/03/12 08:16:39;;;;;;;3.27;2.67;;;;;;;;;;4387531;32;316756;-82
2023/03/12 08:19:06;;;;;;;4.53;3.33;;;;;;;;;;4378076;32;316910;-81
2023/03/12 08:21:33;;;;;;;5.70;2.30;;;;;;;;;;4388718;32;317743;-80
2023/03/12 08:23:59;;;;;;;3.13;2.17;;;;;;;;;;4388527;32;317535;-81
2023/03/12 08:26:26;;;;;;;4.70;3.70;;;;;;;;;;4376243;32;317253;-81
2023/03/12 08:28:54;;;;;;;5.10;3.40;;;;;;;;;;4386526;32;316650;-80
2023/03/12 08:31:21;;;;;;;5.13;3.10;;;;;;;;;;4379241;32;316528;-80
2023/03/12 08:33:48;;;;;;;8.60;3.80;;;;;;;;;;4395059;32;315425;-81
2023/03/12 08:36:14;;;;;;;6.00;2.90;;;;;;;;;;4384995;32;317947;-81
2023/03/12 08:38:41;;;;;;;3.20;2.20;;;;;;;;;;4395695;32;316394;-82
2023/03/12 08:41:09;;;;;;;2.63;1.93;;;;;;;;;;4385401;32;317268;-83
2023/03/12 08:43:36;;;;;;;5.60;2.73;;;;;;;;;;4395835;32;317374;-81
2023/03/12 08:46:04;;;;;;;5.90;3.33;;;;;;;;;;4386448;32;316646;-82
2023/03/12 08:48:32;;;;;;;3.17;2.20;;;;;;;;;;4396615;32;317378;-81
2023/03/12 08:51:02;;;;;;;3.90;2.20;;;;;;;;;;4396493;32;316930;-81
2023/03/12 08:53:31;;;;;;;3.37;2.23;;;;;;;;;;4383591;32;415991;-81
2023/03/12 08:55:58;;;;;;;3.23;2.37;;;;;;;;;;4396497;32;316399;-81
2023/03/12 08:58:26;;;;;;;3.07;2.57;;;;;;;;;;4383268;32;351847;-81
2023/03/12 09:00:54;;;;;;;4.90;3.37;;;;;;;;;;4398698;32;316850;-81
2023/03/12 09:03:23;;;;;;;8.83;4.60;;;;;;;;;;4388005;32;316826;-82
2023/03/12 09:05:50;;;;;;;4.77;3.50;;;;;;;;;;4393617;32;317319;-81
2023/03/12 09:08:18;;;;;;;12.37;5.73;;;;;;;;;;4372295;32;317194;-82
2023/03/12 09:10:48;;;;;;;15.03;5.87;;;;;;;;;;4389882;32;318563;-82
2023/03/12 09:13:16;;;;;;;4.80;2.80;;;;;;;;;;4381076;32;317941;-84
2023/03/12 09:15:42;;;;;;;4.60;3.37;;;;;;;;;;4392773;32;317592;-82
2023/03/12 09:18:09;;;;;;;4.17;2.13;;;;;;;;;;4382584;32;316681;-82
2023/03/12 09:20:37;;;;;;;6.70;3.20;;;;;;;;;;4389213;32;316752;-82
2023/03/12 09:23:04;;;;;;;4.00;3.13;;;;;;;;;;4379274;32;316713;-86
2023/03/12 09:25:31;;;;;;;3.60;2.83;;;;;;;;;;4391623;32;316817;-81
2023/03/12 09:27:58;;;;;;;4.40;3.33;;;;;;;;;;4395680;32;316799;-84
2023/03/12 09:30:25;;;;;;;2.73;2.03;;;;;;;;;;4402892;32;317429;-81
2023/03/12 09:32:53;;;;;;;11.50;8.73;;;;;;;;;;4415365;32;316748;-81
2023/03/12 09:35:20;;;;;;;11.33;7.87;;;;;;;;;;4402073;32;317775;-81
2023/03/12 09:37:50;;;;;;;5.87;4.23;;;;;;;;;;4411275;32;318347;-81
2023/03/12 09:40:19;;;;;;;6.57;2.73;;;;;;;;;;4402499;32;327998;-81
2023/03/12 09:42:50;;;;;;;4.67;2.93;;;;;;;;;;4413272;32;317156;-81
2023/03/12 09:45:21;;;;;;;29.13;17.90;;;;;;;;;;4402796;32;317385;-81
2023/03/12 09:47:50;;;;;;;24.37;13.37;;;;;;;;;;4413831;32;319349;-80
2023/03/12 09:50:25;;;;;;;11.93;6.50;;;;;;;;;;4403206;32;319178;-81
2023/03/12 09:52:59;;;;;;;20.00;10.13;;;;;;;;;;4412860;32;318435;-81
2023/03/12 09:55:28;;;;;;;7.47;5.20;;;;;;;;;;4400653;32;370754;-82
2023/03/12 09:57:56;;;;;;;3.10;2.30;;;;;;;;;;4412999;32;317394;-81
2023/03/12 10:00:29;;;;;;;10.30;5.10;;;;;;;;;;4402420;32;317245;-81
2023/03/12 10:03:16;;;;;;;6.37;3.83;;;;;;;;;;4411803;32;333778;-81
2023/03/12 10:05:47;;;;;;;2.87;2.27;;;;;;;;;;4387671;32;416542;-80
2023/03/12 10:08:24;;;;;;;8.03;4.93;;;;;;;;;;4377910;32;350951;-82
2023/03/12 10:10:56;;;;;;;3.30;2.20;;;;;;;;;;4386835;32;316644;-82
2023/03/12 10:13:43;;;;;;;10.47;4.80;;;;;;;;;;4379155;32;354318;-81
2023/03/12 10:16:22;;;;;;;7.83;4.37;;;;;;;;;;4380165;32;318351;-81
2023/03/12 10:19:04;;;;;;;7.60;4.57;;;;;;;;;;4387933;32;317491;-80
2023/03/12 10:21:37;;;;;;;7.70;2.33;;;;;;;;;;4376396;32;417398;-84
2023/03/12 10:24:21;;;;;;;7.00;3.97;;;;;;;;;;4377937;32;352106;-82
2023/03/12 10:26:50;;;;;;;7.73;2.57;;;;;;;;;;4382604;32;317300;-81
2023/03/12 10:29:20;;;;;;;6.57;4.17;;;;;;;;;;4371373;32;317216;-83
2023/03/12 10:31:54;;;;;;;17.63;10.53;;;;;;;;;;4388148;32;316666;-89
2023/03/12 10:34:25;;;;;;;7.53;4.90;;;;;;;;;;4387480;32;318950;-88
2023/03/12 10:36:54;;;;;;;8.07;2.43;;;;;;;;;;4395696;32;316420;-88
2023/03/12 10:39:22;;;;;;;9.33;2.23;;;;;;;;;;4384376;32;317163;-89
2023/03/12 10:41:51;;;;;;;3.50;2.53;;;;;;;;;;4387947;32;316565;-89
2023/03/12 10:44:22;;;;;;;2.90;2.23;;;;;;;;;;4377161;32;317345;-87
2023/03/12 10:46:58;;;;;;;2.27;2.00;;;;;;;;;;4384642;32;334286;-87
2023/03/12 10:49:30;;;;;;;3.43;1.30;;;;;;;;;;4379699;32;317119;-86
2023/03/12 10:52:01;;;;;;;3.40;1.73;;;;;;;;;;4381789;32;317507;-82
2023/03/12 10:54:32;;;;;;;2.50;1.63;;;;;;;;;;4368869;32;417943;-83
2023/03/12 10:56:58;;;;;;;18.87;8.97;;;;;;;;;;4382346;32;316566;-83
2023/03/12 10:59:31;;;;;;;6.57;3.67;;;;;;;;;;4372071;32;318407;-83
2023/03/12 11:01:59;;;;;;;5.63;3.60;;;;;;;;;;4381678;32;317341;-82
2023/03/12 11:04:28;;;;;;;15.53;9.17;;;;;;;;;;4374041;32;317204;-83
2023/03/12 11:07:15;;;;;;;5.67;1.97;;;;;;;;;;4381671;32;318559;-82
2023/03/12 11:09:44;;;;;;;5.17;3.63;;;;;;;;;;4371386;32;416918;-82
2023/03/12 11:12:25;;;;;;;3.90;2.80;;;;;;;;;;4373475;32;357845;-82
2023/03/12 11:14:52;;;;;;;3.67;2.20;;;;;;;;;;4383186;32;316577;-85
2023/03/12 11:17:22;;;;;;;3.50;2.30;;;;;;;;;;4373045;32;317092;-80
2023/03/12 11:19:49;;;;;;;8.10;3.07;;;;;;;;;;4382574;32;317124;-83
2023/03/12 11:22:28;;;;;;;6.07;2.83;;;;;;;;;;4375010;32;317305;-82
2023/03/12 11:24:58;;;;;;;18.90;10.90;;;;;;;;;;4380670;32;317313;-83
2023/03/12 11:27:36;;;;;;;29.97;18.13;;;;;;;;;;4369537;32;355120;-83
2023/03/12 11:30:05;;;;;;;9.40;7.37;;;;;;;;;;4368406;32;368358;-83
2023/03/12 11:32:35;;;;;;;6.67;3.70;;;;;;;;;;4381781;32;317348;-83
2023/03/12 11:35:03;;;;;;;3.50;2.50;;;;;;;;;;4369048;32;378007;-82
2023/03/12 11:37:43;;;;;;;5.07;3.00;;;;;;;;;;4387679;32;317589;-82
2023/03/12 11:40:21;;;;;;;3.67;2.73;;;;;;;;;;4373137;32;317377;-84
2023/03/12 11:43:15;;;;;;;8.37;6.37;;;;;;;;;;4382949;32;317604;-83
2023/03/12 11:45:54;;;;;;;6.17;3.77;;;;;;;;;;4368617;32;417057;-83
2023/03/12 11:48:28;;;;;;;2.73;1.73;;;;;;;;;;4365088;32;317179;-82
2023/03/12 11:51:09;;;;;;;3.73;1.93;;;;;;;;;;4384062;32;317223;-83
2023/03/12 11:53:56;;;;;;;5.27;3.50;;;;;;;;;;4369668;32;417834;-83
2023/03/12 11:56:30;;;;;;;2.63;2.00;;;;;;;;;;4372454;32;317225;-83
2023/03/12 11:59:22;;;;;;;4.73;3.53;;;;;;;;;;4382599;32;317242;-83
2023/03/12 12:01:58;;;;;;;4.57;2.97;;;;;;;;;;4370171;32;417188;-83
2023/03/12 12:05:03;;;;;;;1.87;1.40;;;;;;;;;;4373113;32;316920;-90
2023/03/12 12:07:44;;;;;;;3.10;2.40;;;;;;;;;;4366961;32;417253;-88
2023/03/12 12:10:24;;;;;;;2.93;2.37;;;;;;;;;;4394709;32;317390;-86
2023/03/12 12:13:03;;;;;;;2.60;2.23;;;;;;;;;;4412336;32;327956;-83
2023/03/12 12:15:41;;;;;;;3.57;2.60;;;;;;;;;;4399719;32;419218;-84
2023/03/12 12:18:33;;;;;;;1.98;1.67;;;;;;;;;;4390724;32;316664;-84
2023/03/12 12:21:06;;;;;;;3.03;1.90;;;;;;;;;;4397329;32;317221;-84
2023/03/12 12:23:44;;;;;;;4.27;2.60;;;;;;;;;;4378115;32;417294;-86
2023/03/12 12:26:13;;;;;;;7.43;4.20;;;;;;;;;;4380006;32;316567;-83
2023/03/12 12:29:08;;;;;;;3.27;2.00;;;;;;;;;;4401561;32;317507;-83
2023/03/12 12:31:40;;;;;;;9.43;4.77;;;;;;;;;;4377631;32;419574;-84
2023/03/12 12:34:40;;;;;;;5.67;3.83;;;;;;;;;;4388929;32;317448;-84
2023/03/12 12:37:31;;;;;;;5.50;2.75;;;;;;;;;;4384391;32;316667;-84
2023/03/12 12:40:08;;;;;;;9.45;5.00;;;;;;;;;;4398662;32;316652;-80
2023/03/12 12:42:41;;;;;;;4.35;3.30;;;;;;;;;;4387213;32;417836;-83
2023/03/12 12:45:14;;;;;;;5.07;2.90;;;;;;;;;;4390436;32;317183;-82
2023/03/12 12:47:46;;;;;;;11.40;7.53;;;;;;;;;;4400692;32;317250;-82
2023/03/12 12:50:18;;;;;;;6.57;3.40;;;;;;;;;;4389236;32;318325;-82
2023/03/12 12:52:49;;;;;;;5.60;3.70;;;;;;;;;;4400170;32;317615;-83
2023/03/12 12:55:21;;;;;;;7.20;4.67;;;;;;;;;;4388126;32;317619;-83
2023/03/12 12:57:54;;;;;;;12.63;8.13;;;;;;;;;;4399331;32;325388;-83
2023/03/12 13:00:33;;;;;;;3.75;2.50;;;;;;;;;;4388475;32;335362;-82
2023/03/12 13:03:03;;;;;;;3.40;2.30;;;;;;;;;;4397158;32;315788;-83
2023/03/12 13:05:44;;;;;;;10.43;5.57;;;;;;;;;;4382157;32;416413;-82
2023/03/12 13:08:32;;;;;;;22.77;13.07;;;;;;;;;;4388294;32;318524;-86
2023/03/12 13:10:59;;;;;;;19.93;12.37;;;;;;;;;;4412023;32;319463;-83
2023/03/12 13:13:26;;;;;;;15.13;9.57;;;;;;;;;;4396805;32;319297;-84
2023/03/12 13:16:19;;;;;;;7.63;5.20;;;;;;;;;;4399746;32;318079;-85
2023/03/12 13:18:57;;;;;;;5.13;2.70;;;;;;;;;;4387221;32;417837;-83
2023/03/12 13:21:29;;;;;;;3.47;1.70;;;;;;;;;;4389947;32;317318;-88
2023/03/12 13:24:09;;;;;;;7.67;4.20;;;;;;;;;;4396615;32;317050;-82
2023/03/12 13:26:51;;;;;;;3.70;2.97;;;;;;;;;;4386059;32;417279;-83
2023/03/12 13:29:35;;;;;;;10.90;5.33;;;;;;;;;;4389549;32;317405;-83
2023/03/12 13:32:04;;;;;;;6.10;4.47;;;;;;;;;;4387318;32;318499;-83
2023/03/12 13:34:58;;;;;;;3.60;2.43;;;;;;;;;;4397153;32;324515;-83
2023/03/12 13:38:03;;;;;;;9.37;5.63;;;;;;;;;;4387144;32;316832;-83
2023/03/12 13:41:00;;;;;;;5.57;3.30;;;;;;;;;;4386027;32;417405;-83
2023/03/12 13:43:55;;;;;;;8.87;4.37;;;;;;;;;;4358618;32;417706;-83
2023/03/12 13:46:35;;;;;;;6.03;4.53;;;;;;;;;;4386848;32;317060;-83
2023/03/12 13:49:10;;;;;;;10.80;5.70;;;;;;;;;;4387828;32;317451;-84
2023/03/12 13:51:45;;;;;;;91.63;52.50;;;;;;;;;;4397830;32;318248;-83
2023/03/12 13:54:17;;;;;;;4.47;3.60;;;;;;;;;;4386619;32;319351;-83
2023/03/12 13:56:54;;;;;;;7.83;4.43;;;;;;;;;;4397283;32;317442;-83
2023/03/12 13:59:20;;;;;;;5.37;3.67;;;;;;;;;;4378395;32;317917;-89
2023/03/12 14:01:49;;;;;;;17.23;7.07;;;;;;;;;;4392493;32;317094;-83
2023/03/12 14:04:21;;;;;;;8.00;3.60;;;;;;;;;;4373387;32;318191;-83
2023/03/12 14:07:00;;;;;;;10.20;7.00;;;;;;;;;;4394030;32;317149;-83
2023/03/12 14:09:35;;;;;;;5.73;3.83;;;;;;;;;;4377370;32;417358;-83
2023/03/12 14:12:08;;;;;;;4.07;3.27;;;;;;;;;;4366009;32;317341;-83
2023/03/12 14:15:13;;;;;;;8.13;7.33;;;;;;;;;;4388901;32;317181;-84
2023/03/12 14:17:42;;;;;;;6.00;3.63;;;;;;;;;;4385283;32;417124;-83
2023/03/12 14:20:16;;;;;;;33.47;5.83;;;;;;;;;;4389517;32;317167;-83
2023/03/12 14:22:48;;;;;;;9.03;6.20;;;;;;;;;;4396678;32;317706;-83
2023/03/12 14:25:22;;;;;;;5.03;3.73;;;;;;;;;;4386253;32;317229;-83
2023/03/12 14:27:48;;;;;;;7.53;5.07;;;;;;;;;;4396192;32;316777;-83
2023/03/12 14:30:22;;;;;;;6.37;4.00;;;;;;;;;;4387683;32;317438;-82
2023/03/12 14:32:52;;;;;;;9.93;6.80;;;;;;;;;;4398456;32;316861;-82
2023/03/12 14:35:24;;;;;;;6.97;5.03;;;;;;;;;;4387805;32;316750;-82
2023/03/12 14:37:56;;;;;;;8.27;5.63;;;;;;;;;;4398630;32;316292;-82
2023/03/12 14:40:31;;;;;;;11.45;6.35;;;;;;;;;;4386565;32;316513;-82
2023/03/12 14:43:00;;;;;;;4.23;2.63;;;;;;;;;;4396487;32;317407;-83